sensor_id;sensor_type;location;lat;lon;timestamp;pressure;altitude;pressure_sealevel;temperature;humidity
72925;BME280;61070;50.794;7.054;2023-01-15T00:02:19;99323.91;;;7.25;91.96
72925;BME280;61070;50.794;7.054;2023-01-15T00:04:45;99330.19;;;7.18;92.54
72925;BME280;61070;50.794;7.054;2023-01-15T00:07:10;99337.13;;;7.22;93.22
72925;BME280;61070;50.794;7.054;2023-01-15T00:09:35;99333.72;;;7.17;91.54
72925;BME280;61070;50.794;7.054;2023-01-15T00:12:01;99332.03;;;7.13;91.12
72925;BME280;61070;50.794;7.054;2023-01-15T00:14:26;99339.16;;;7.08;92.84
72925;BME280;61070;50.794;7.054;2023-01-15T00:16:52;99335.75;;;7.05;91.61
72925;BME280;61070;50.794;7.054;2023-01-15T00:19:17;99355.13;;;6.99;94.08
72925;BME280;61070;50.794;7.054;2023-01-15T00:21:42;99352.56;;;6.96;93.93
72925;BME280;61070;50.794;7.054;2023-01-15T00:24:08;99361.59;;;6.83;94.33
72925;BME280;61070;50.794;7.054;2023-01-15T00:26:52;99358.91;;;6.86;94.45
72925;BME280;61070;50.794;7.054;2023-01-15T00:29:35;99352.84;;;6.82;93.92
72925;BME280;61070;50.794;7.054;2023-01-15T00:32:03;99380.09;;;6.78;94.36
72925;BME280;61070;50.794;7.054;2023-01-15T00:34:30;99362.56;;;6.77;93.34
72925;BME280;61070;50.794;7.054;2023-01-15T00:36:56;99367.94;;;6.72;93.51
72925;BME280;61070;50.794;7.054;2023-01-15T00:39:21;99371.38;;;6.75;93.08
72925;BME280;61070;50.794;7.054;2023-01-15T00:41:48;99376.66;;;6.75;95.32
72925;BME280;61070;50.794;7.054;2023-01-15T00:44:13;99387.31;;;6.68;93.74
72925;BME280;61070;50.794;7.054;2023-01-15T00:46:39;99381.16;;;6.69;94.35
72925;BME280;61070;50.794;7.054;2023-01-15T00:49:04;99379.41;;;6.68;93.99
72925;BME280;61070;50.794;7.054;2023-01-15T00:51:30;99378.63;;;6.62;93.88
72925;BME280;61070;50.794;7.054;2023-01-15T00:53:56;99385.66;;;6.61;94.25
72925;BME280;61070;50.794;7.054;2023-01-15T00:56:21;99389.19;;;6.60;93.73
72925;BME280;61070;50.794;7.054;2023-01-15T00:58:46;99386.47;;;6.65;93.24
72925;BME280;61070;50.794;7.054;2023-01-15T01:01:12;99389.28;;;6.54;93.53
72925;BME280;61070;50.794;7.054;2023-01-15T01:03:38;99395.41;;;6.55;91.81
72925;BME280;61070;50.794;7.054;2023-01-15T01:06:04;99383.09;;;6.57;93.12
72925;BME280;61070;50.794;7.054;2023-01-15T01:08:29;99383.22;;;6.51;93.00
72925;BME280;61070;50.794;7.054;2023-01-15T01:11:06;99379.78;;;6.47;89.54
72925;BME280;61070;50.794;7.054;2023-01-15T01:13:32;99378.94;;;6.43;90.02
72925;BME280;61070;50.794;7.054;2023-01-15T01:15:59;99377.22;;;6.41;90.68
72925;BME280;61070;50.794;7.054;2023-01-15T01:18:24;99371.94;;;6.42;91.24
72925;BME280;61070;50.794;7.054;2023-01-15T01:20:50;99374.53;;;6.44;90.86
72925;BME280;61070;50.794;7.054;2023-01-15T01:23:15;99376.44;;;6.37;91.31
72925;BME280;61070;50.794;7.054;2023-01-15T01:25:41;99379.97;;;6.35;91.71
72925;BME280;61070;50.794;7.054;2023-01-15T01:28:06;99377.22;;;6.41;92.57
72925;BME280;61070;50.794;7.054;2023-01-15T01:30:31;99380.66;;;6.46;92.29
72925;BME280;61070;50.794;7.054;2023-01-15T01:32:56;99392.16;;;6.39;92.21
72925;BME280;61070;50.794;7.054;2023-01-15T01:35:22;99392.25;;;6.33;92.83
72925;BME280;61070;50.794;7.054;2023-01-15T01:37:50;99383.44;;;6.37;90.96
72925;BME280;61070;50.794;7.054;2023-01-15T01:40:17;99392.22;;;6.37;89.28
72925;BME280;61070;50.794;7.054;2023-01-15T01:42:43;99379.84;;;6.41;90.41
72925;BME280;61070;50.794;7.054;2023-01-15T01:45:31;99375.44;;;6.43;87.30
72925;BME280;61070;50.794;7.054;2023-01-15T01:48:01;99380.72;;;6.41;88.13
72925;BME280;61070;50.794;7.054;2023-01-15T01:50:30;99374.72;;;6.33;88.58
72925;BME280;61070;50.794;7.054;2023-01-15T01:52:59;99368.38;;;6.45;87.53
72925;BME280;61070;50.794;7.054;2023-01-15T01:55:28;99375.59;;;6.34;87.84
72925;BME280;61070;50.794;7.054;2023-01-15T01:57:57;99367.72;;;6.32;87.90
72925;BME280;61070;50.794;7.054;2023-01-15T02:00:24;99373.56;;;6.51;86.28
72925;BME280;61070;50.794;7.054;2023-01-15T02:02:51;99371.00;;;6.45;86.33
72925;BME280;61070;50.794;7.054;2023-01-15T02:05:26;99347.56;;;6.33;87.14
72925;BME280;61070;50.794;7.054;2023-01-15T02:07:53;99364.97;;;6.40;85.94
72925;BME280;61070;50.794;7.054;2023-01-15T02:10:18;99351.88;;;6.37;85.84
72925;BME280;61070;50.794;7.054;2023-01-15T02:12:48;99351.94;;;6.32;86.29
72925;BME280;61070;50.794;7.054;2023-01-15T02:15:25;99357.22;;;6.31;86.54
72925;BME280;61070;50.794;7.054;2023-01-15T02:20:49;99349.41;;;6.28;86.64
72925;BME280;61070;50.794;7.054;2023-01-15T02:28:25;99344.25;;;6.20;87.16
72925;BME280;61070;50.794;7.054;2023-01-15T02:31:19;99353.84;;;6.23;86.21
72925;BME280;61070;50.794;7.054;2023-01-15T02:33:57;99349.50;;;6.22;86.47
72925;BME280;61070;50.794;7.054;2023-01-15T02:36:29;99349.53;;;6.19;86.90
72925;BME280;61070;50.794;7.054;2023-01-15T02:38:58;99346.03;;;6.20;86.63
72925;BME280;61070;50.794;7.054;2023-01-15T02:41:32;99340.88;;;6.13;86.89
72925;BME280;61070;50.794;7.054;2023-01-15T02:44:01;99347.72;;;6.24;86.43
72925;BME280;61070;50.794;7.054;2023-01-15T02:46:30;99345.97;;;6.23;85.88
72925;BME280;61070;50.794;7.054;2023-01-15T02:48:57;99348.84;;;6.07;87.16
72925;BME280;61070;50.794;7.054;2023-01-15T02:51:27;99351.41;;;6.13;86.37
72925;BME280;61070;50.794;7.054;2023-01-15T02:53:58;99359.34;;;6.09;87.33
72925;BME280;61070;50.794;7.054;2023-01-15T02:56:28;99361.94;;;6.10;88.18
72925;BME280;61070;50.794;7.054;2023-01-15T02:58:57;99346.88;;;6.23;85.86
72925;BME280;61070;50.794;7.054;2023-01-15T03:01:35;99349.63;;;6.14;85.97
72925;BME280;61070;50.794;7.054;2023-01-15T03:04:15;99351.44;;;6.12;85.99
72925;BME280;61070;50.794;7.054;2023-01-15T03:06:48;99359.16;;;6.20;85.73
72925;BME280;61070;50.794;7.054;2023-01-15T03:09:17;99355.75;;;6.15;85.37
72925;BME280;61070;50.794;7.054;2023-01-15T03:11:46;99350.53;;;6.13;86.52
72925;BME280;61070;50.794;7.054;2023-01-15T03:14:15;99364.56;;;6.12;86.02
72925;BME280;61070;50.794;7.054;2023-01-15T03:16:53;99359.22;;;6.17;85.42
72925;BME280;61070;50.794;7.054;2023-01-15T03:19:28;99358.50;;;6.07;86.53
72925;BME280;61070;50.794;7.054;2023-01-15T03:24:32;99351.19;;;6.26;85.38
72925;BME280;61070;50.794;7.054;2023-01-15T03:27:00;99356.59;;;6.17;86.31
72925;BME280;61070;50.794;7.054;2023-01-15T03:29:29;99359.22;;;6.17;85.57
72925;BME280;61070;50.794;7.054;2023-01-15T03:31:57;99365.31;;;6.19;85.54
72925;BME280;61070;50.794;7.054;2023-01-15T03:34:24;99362.75;;;6.16;86.34
72925;BME280;61070;50.794;7.054;2023-01-15T03:36:50;99367.00;;;6.23;85.16
72925;BME280;61070;50.794;7.054;2023-01-15T03:39:15;99362.41;;;6.37;85.04
72925;BME280;61070;50.794;7.054;2023-01-15T03:41:47;99361.56;;;6.35;84.36
72925;BME280;61070;50.794;7.054;2023-01-15T03:44:35;99353.63;;;6.38;83.04
72925;BME280;61070;50.794;7.054;2023-01-15T03:47:09;99343.97;;;6.38;83.72
72925;BME280;61070;50.794;7.054;2023-01-15T03:52:21;99331.78;;;6.33;83.42
72925;BME280;61070;50.794;7.054;2023-01-15T03:54:53;99323.94;;;6.30;82.99
72925;BME280;61070;50.794;7.054;2023-01-15T03:57:37;99316.81;;;6.38;82.16
72925;BME280;61070;50.794;7.054;2023-01-15T04:00:14;99314.25;;;6.32;81.18
72925;BME280;61070;50.794;7.054;2023-01-15T04:02:43;99312.41;;;6.38;80.61
72925;BME280;61070;50.794;7.054;2023-01-15T04:05:10;99308.00;;;6.39;78.91
72925;BME280;61070;50.794;7.054;2023-01-15T04:07:35;99301.84;;;6.40;78.71
72925;BME280;61070;50.794;7.054;2023-01-15T04:10:01;99306.34;;;6.35;79.29
72925;BME280;61070;50.794;7.054;2023-01-15T04:12:26;99310.91;;;6.24;80.88
72925;BME280;61070;50.794;7.054;2023-01-15T04:14:52;99313.41;;;6.31;80.61
72925;BME280;61070;50.794;7.054;2023-01-15T04:17:18;99307.31;;;6.29;81.18
72925;BME280;61070;50.794;7.054;2023-01-15T04:19:43;99309.72;;;6.41;81.16
72925;BME280;61070;50.794;7.054;2023-01-15T04:22:09;99314.19;;;6.38;81.17
72925;BME280;61070;50.794;7.054;2023-01-15T04:24:36;99308.94;;;6.36;81.13
72925;BME280;61070;50.794;7.054;2023-01-15T04:27:01;99310.94;;;6.21;82.87
72925;BME280;61070;50.794;7.054;2023-01-15T04:29:26;99306.44;;;6.29;83.74
72925;BME280;61070;50.794;7.054;2023-01-15T04:31:51;99310.91;;;6.22;83.20
72925;BME280;61070;50.794;7.054;2023-01-15T04:34:21;99310.16;;;6.16;83.85
72925;BME280;61070;50.794;7.054;2023-01-15T04:36:46;99310.22;;;6.11;84.85
72925;BME280;61070;50.794;7.054;2023-01-15T04:39:12;99322.16;;;6.32;84.32
72925;BME280;61070;50.794;7.054;2023-01-15T04:41:37;99313.66;;;6.16;84.54
72925;BME280;61070;50.794;7.054;2023-01-15T04:44:21;99315.47;;;6.11;84.42
72925;BME280;61070;50.794;7.054;2023-01-15T04:46:52;99330.38;;;6.13;84.94
72925;BME280;61070;50.794;7.054;2023-01-15T04:49:17;99318.72;;;6.28;83.49
72925;BME280;61070;50.794;7.054;2023-01-15T04:51:43;99305.81;;;6.15;83.64
72925;BME280;61070;50.794;7.054;2023-01-15T04:54:11;99304.00;;;6.17;82.48
72925;BME280;61070;50.794;7.054;2023-01-15T04:56:38;99316.41;;;6.08;83.43
72925;BME280;61070;50.794;7.054;2023-01-15T04:59:04;99311.00;;;6.18;82.11
72925;BME280;61070;50.794;7.054;2023-01-15T05:01:29;99327.47;;;6.29;81.08
72925;BME280;61070;50.794;7.054;2023-01-15T05:03:54;99318.84;;;6.21;80.94
72925;BME280;61070;50.794;7.054;2023-01-15T05:06:22;99323.19;;;6.23;80.10
72925;BME280;61070;50.794;7.054;2023-01-15T05:08:47;99326.53;;;6.31;79.22
72925;BME280;61070;50.794;7.054;2023-01-15T05:11:12;99323.03;;;6.31;79.54
72925;BME280;61070;50.794;7.054;2023-01-15T05:13:38;99317.81;;;6.29;78.72
72925;BME280;61070;50.794;7.054;2023-01-15T05:16:15;99318.72;;;6.28;79.06
72925;BME280;61070;50.794;7.054;2023-01-15T05:18:42;99309.91;;;6.31;77.74
72925;BME280;61070;50.794;7.054;2023-01-15T05:21:22;99300.25;;;6.31;77.12
72925;BME280;61070;50.794;7.054;2023-01-15T05:23:49;99308.25;;;6.25;77.39
72925;BME280;61070;50.794;7.054;2023-01-15T05:26:15;99309.00;;;6.32;76.96
72925;BME280;61070;50.794;7.054;2023-01-15T05:28:40;99302.94;;;6.28;76.58
72925;BME280;61070;50.794;7.054;2023-01-15T05:31:14;99319.59;;;6.29;77.26
72925;BME280;61070;50.794;7.054;2023-01-15T05:33:40;99307.41;;;6.25;76.27
72925;BME280;61070;50.794;7.054;2023-01-15T05:36:09;99311.84;;;6.20;76.75
72925;BME280;61070;50.794;7.054;2023-01-15T05:38:35;99311.03;;;6.16;76.91
72925;BME280;61070;50.794;7.054;2023-01-15T05:41:05;99317.09;;;6.20;76.65
72925;BME280;61070;50.794;7.054;2023-01-15T05:43:50;99313.69;;;6.15;76.45
72925;BME280;61070;50.794;7.054;2023-01-15T05:46:15;99312.00;;;6.09;77.69
72925;BME280;61070;50.794;7.054;2023-01-15T05:48:41;99321.72;;;6.05;77.69
72925;BME280;61070;50.794;7.054;2023-01-15T05:51:06;99324.34;;;6.05;78.00
72925;BME280;61070;50.794;7.054;2023-01-15T05:53:31;99339.31;;;6.02;78.02
72925;BME280;61070;50.794;7.054;2023-01-15T05:56:02;99336.72;;;5.99;79.01
72925;BME280;61070;50.794;7.054;2023-01-15T05:58:28;99340.28;;;5.95;79.22
72925;BME280;61070;50.794;7.054;2023-01-15T06:00:53;99338.59;;;5.88;80.17
72925;BME280;61070;50.794;7.054;2023-01-15T06:03:21;99356.16;;;5.85;80.67
72925;BME280;61070;50.794;7.054;2023-01-15T06:05:53;99364.97;;;5.81;81.25
72925;BME280;61070;50.794;7.054;2023-01-15T06:08:19;99367.59;;;5.81;82.01
72925;BME280;61070;50.794;7.054;2023-01-15T06:10:45;99361.38;;;5.87;82.16
72925;BME280;61070;50.794;7.054;2023-01-15T06:13:11;99368.41;;;5.85;81.99
72925;BME280;61070;50.794;7.054;2023-01-15T06:15:36;99369.28;;;5.85;82.97
72925;BME280;61070;50.794;7.054;2023-01-15T06:18:02;99372.88;;;5.80;83.02
72925;BME280;61070;50.794;7.054;2023-01-15T06:20:27;99370.25;;;5.81;83.59
72925;BME280;61070;50.794;7.054;2023-01-15T06:22:52;99341.38;;;5.80;83.35
72925;BME280;61070;50.794;7.054;2023-01-15T06:25:17;99363.28;;;5.76;83.67
72925;BME280;61070;50.794;7.054;2023-01-15T06:27:43;99356.31;;;5.75;84.45
72925;BME280;61070;50.794;7.054;2023-01-15T06:30:10;99363.38;;;5.71;84.17
72925;BME280;61070;50.794;7.054;2023-01-15T06:32:35;99371.22;;;5.73;84.41
72925;BME280;61070;50.794;7.054;2023-01-15T06:35:01;99363.41;;;5.68;84.60
72925;BME280;61070;50.794;7.054;2023-01-15T06:37:26;99370.50;;;5.62;85.22
72925;BME280;61070;50.794;7.054;2023-01-15T06:39:51;99359.16;;;5.60;85.70
72925;BME280;61070;50.794;7.054;2023-01-15T06:42:17;99388.13;;;5.53;86.40
72925;BME280;61070;50.794;7.054;2023-01-15T06:45:01;99384.69;;;5.48;86.82
72925;BME280;61070;50.794;7.054;2023-01-15T06:47:46;99381.34;;;5.36;87.12
72925;BME280;61070;50.794;7.054;2023-01-15T06:50:11;99393.53;;;5.41;87.76
72925;BME280;61070;50.794;7.054;2023-01-15T06:52:38;99396.25;;;5.32;87.93
72925;BME280;61070;50.794;7.054;2023-01-15T06:55:03;99400.84;;;5.15;89.33
72925;BME280;61070;50.794;7.054;2023-01-15T06:57:29;99399.91;;;5.19;89.05
72925;BME280;61070;50.794;7.054;2023-01-15T06:59:54;99410.34;;;5.26;88.87
72925;BME280;61070;50.794;7.054;2023-01-15T07:02:19;99405.09;;;5.25;88.75
72925;BME280;61070;50.794;7.054;2023-01-15T07:04:46;99397.25;;;5.20;88.87
72925;BME280;61070;50.794;7.054;2023-01-15T07:07:15;99411.19;;;5.29;87.74
72925;BME280;61070;50.794;7.054;2023-01-15T07:09:41;99405.97;;;5.25;88.03
72925;BME280;61070;50.794;7.054;2023-01-15T07:12:06;99398.09;;;5.25;87.97
72925;BME280;61070;50.794;7.054;2023-01-15T07:14:31;99392.91;;;5.18;87.50
72925;BME280;61070;50.794;7.054;2023-01-15T07:16:57;99412.09;;;5.26;87.20
72925;BME280;61070;50.794;7.054;2023-01-15T07:19:23;99408.56;;;5.29;86.66
72925;BME280;61070;50.794;7.054;2023-01-15T07:21:48;99410.25;;;5.31;85.71
72925;BME280;61070;50.794;7.054;2023-01-15T07:24:14;99407.53;;;5.40;85.53
72925;BME280;61070;50.794;7.054;2023-01-15T07:26:40;99407.63;;;5.34;85.52
72925;BME280;61070;50.794;7.054;2023-01-15T07:29:06;99406.69;;;5.38;85.26
72925;BME280;61070;50.794;7.054;2023-01-15T07:31:31;99435.53;;;5.44;84.86
72925;BME280;61070;50.794;7.054;2023-01-15T07:33:57;99443.41;;;5.44;84.85
72925;BME280;61070;50.794;7.054;2023-01-15T07:36:23;99439.91;;;5.42;84.98
72925;BME280;61070;50.794;7.054;2023-01-15T07:38:48;99428.50;;;5.45;84.08
72925;BME280;61070;50.794;7.054;2023-01-15T07:41:14;99424.94;;;5.49;84.63
72925;BME280;61070;50.794;7.054;2023-01-15T07:43:58;99426.75;;;5.42;83.92
72925;BME280;61070;50.794;7.054;2023-01-15T07:46:42;99437.22;;;5.47;83.47
72925;BME280;61070;50.794;7.054;2023-01-15T07:49:25;99437.22;;;5.47;83.61
72925;BME280;61070;50.794;7.054;2023-01-15T07:54:38;99440.75;;;5.46;84.02
72925;BME280;61070;50.794;7.054;2023-01-15T07:57:04;99455.63;;;5.45;83.04
72925;BME280;61070;50.794;7.054;2023-01-15T07:59:30;99451.22;;;5.49;82.89
72925;BME280;61070;50.794;7.054;2023-01-15T08:01:55;99459.16;;;5.43;83.22
72925;BME280;61070;50.794;7.054;2023-01-15T08:04:20;99453.03;;;5.44;82.34
72925;BME280;61070;50.794;7.054;2023-01-15T08:06:45;99463.56;;;5.41;83.17
72925;BME280;61070;50.794;7.054;2023-01-15T08:09:11;99460.13;;;5.36;83.01
72925;BME280;61070;50.794;7.054;2023-01-15T08:11:36;99475.00;;;5.32;83.40
72925;BME280;61070;50.794;7.054;2023-01-15T08:14:20;99481.06;;;5.40;82.04
72925;BME280;61070;50.794;7.054;2023-01-15T08:17:04;99496.84;;;5.37;82.38
72925;BME280;61070;50.794;7.054;2023-01-15T08:19:29;99502.13;;;5.36;84.65
72925;BME280;61070;50.794;7.054;2023-01-15T08:21:55;99496.75;;;5.48;86.76
72925;BME280;61070;50.794;7.054;2023-01-15T08:24:24;99494.19;;;5.40;86.34
72925;BME280;61070;50.794;7.054;2023-01-15T08:26:51;99506.53;;;5.34;85.26
72925;BME280;61070;50.794;7.054;2023-01-15T08:29:16;99500.16;;;5.54;84.47
72925;BME280;61070;50.794;7.054;2023-01-15T08:31:42;99502.91;;;5.45;85.73
72925;BME280;61070;50.794;7.054;2023-01-15T08:34:07;99518.66;;;5.47;85.76
72925;BME280;61070;50.794;7.054;2023-01-15T08:36:33;99525.56;;;5.54;85.81
72925;BME280;61070;50.794;7.054;2023-01-15T08:38:58;99535.25;;;5.49;85.66
72925;BME280;61070;50.794;7.054;2023-01-15T08:41:24;99544.94;;;5.44;86.69
72925;BME280;61070;50.794;7.054;2023-01-15T08:43:49;99542.31;;;5.42;88.07
72925;BME280;61070;50.794;7.054;2023-01-15T08:46:14;99552.91;;;5.33;89.31
72925;BME280;61070;50.794;7.054;2023-01-15T08:48:39;99534.56;;;5.30;91.80
72925;BME280;61070;50.794;7.054;2023-01-15T08:51:07;99532.88;;;5.23;92.96
72925;BME280;61070;50.794;7.054;2023-01-15T08:53:32;99533.84;;;5.13;91.69
72925;BME280;61070;50.794;7.054;2023-01-15T08:55:58;99539.91;;;5.18;93.17
72925;BME280;61070;50.794;7.054;2023-01-15T08:58:27;99540.78;;;5.21;94.41
72925;BME280;61070;50.794;7.054;2023-01-15T09:00:52;99540.63;;;5.37;93.70
72925;BME280;61070;50.794;7.054;2023-01-15T09:03:18;99533.72;;;5.26;93.22
72925;BME280;61070;50.794;7.054;2023-01-15T09:05:43;99535.50;;;5.23;93.97
72925;BME280;61070;50.794;7.054;2023-01-15T09:08:08;99532.84;;;5.26;93.11
72925;BME280;61070;50.794;7.054;2023-01-15T09:10:34;99528.44;;;5.30;92.73
72925;BME280;61070;50.794;7.054;2023-01-15T09:13:00;99529.09;;;5.51;90.71
72925;BME280;61070;50.794;7.054;2023-01-15T09:15:31;99537.91;;;5.47;89.54
72925;BME280;61070;50.794;7.054;2023-01-15T09:17:57;99543.81;;;5.66;88.10
72925;BME280;61070;50.794;7.054;2023-01-15T09:20:22;99530.63;;;5.71;86.93
72925;BME280;61070;50.794;7.054;2023-01-15T09:22:48;99526.22;;;5.73;87.07
72925;BME280;61070;50.794;7.054;2023-01-15T09:25:14;99522.69;;;5.78;87.27
72925;BME280;61070;50.794;7.054;2023-01-15T09:27:45;99519.13;;;5.82;85.50
72925;BME280;61070;50.794;7.054;2023-01-15T09:30:16;99526.00;;;5.96;84.03
72925;BME280;61070;50.794;7.054;2023-01-15T09:32:42;99515.56;;;5.87;83.38
72925;BME280;61070;50.794;7.054;2023-01-15T09:35:08;99521.66;;;5.89;84.34
72925;BME280;61070;50.794;7.054;2023-01-15T09:37:33;99520.00;;;5.81;84.22
72925;BME280;61070;50.794;7.054;2023-01-15T09:39:58;99527.88;;;5.83;83.31
72925;BME280;61070;50.794;7.054;2023-01-15T09:43:01;99519.09;;;5.84;82.99
72925;BME280;61070;50.794;7.054;2023-01-15T09:45:48;99515.69;;;5.76;83.26
72925;BME280;61070;50.794;7.054;2023-01-15T09:51:03;99519.13;;;5.82;82.11
72925;BME280;61070;50.794;7.054;2023-01-15T09:56:24;99515.53;;;5.88;81.51
72925;BME280;61070;50.794;7.054;2023-01-15T09:58:52;99523.44;;;5.91;82.08
72925;BME280;61070;50.794;7.054;2023-01-15T10:01:22;99519.06;;;5.90;81.85
72925;BME280;61070;50.794;7.054;2023-01-15T10:04:29;99514.66;;;5.89;80.27
72925;BME280;61070;50.794;7.054;2023-01-15T10:07:09;99515.59;;;5.83;80.72
72925;BME280;61070;50.794;7.054;2023-01-15T10:09:38;99523.34;;;5.97;79.91
72925;BME280;61070;50.794;7.054;2023-01-15T10:12:26;99526.88;;;5.96;80.66
72925;BME280;61070;50.794;7.054;2023-01-15T10:17:40;99533.00;;;5.95;79.66
72925;BME280;61070;50.794;7.054;2023-01-15T10:20:23;99533.69;;;6.09;79.14
72925;BME280;61070;50.794;7.054;2023-01-15T10:27:01;99537.06;;;6.21;77.57
72925;BME280;61070;50.794;7.054;2023-01-15T10:29:02;99550.03;;;6.33;77.32
72925;BME280;61070;50.794;7.054;2023-01-15T10:31:49;99551.00;;;6.29;76.69
72925;BME280;61070;50.794;7.054;2023-01-15T10:40:30;99561.34;;;6.41;76.50
72925;BME280;61070;50.794;7.054;2023-01-15T10:45:22;99549.72;;;6.59;74.35
72925;BME280;61070;50.794;7.054;2023-01-15T10:47:53;99557.56;;;6.60;74.29
72925;BME280;61070;50.794;7.054;2023-01-15T10:50:24;99567.09;;;6.69;74.57
72925;BME280;61070;50.794;7.054;2023-01-15T10:52:56;99563.59;;;6.68;73.20
72925;BME280;61070;50.794;7.054;2023-01-15T10:55:31;99539.94;;;6.65;72.88
72925;BME280;61070;50.794;7.054;2023-01-15T10:58:23;99551.31;;;6.69;72.73
72925;BME280;61070;50.794;7.054;2023-01-15T11:00:49;99545.00;;;6.79;71.73
72925;BME280;61070;50.794;7.054;2023-01-15T11:03:20;99556.38;;;6.81;71.58
72925;BME280;61070;50.794;7.054;2023-01-15T11:05:46;99539.72;;;6.81;71.41
72925;BME280;61070;50.794;7.054;2023-01-15T11:08:21;99543.25;;;6.80;71.18
72925;BME280;61070;50.794;7.054;2023-01-15T11:11:22;99539.66;;;6.85;70.53
72925;BME280;61070;50.794;7.054;2023-01-15T11:14:08;99555.34;;;6.90;70.89
72925;BME280;61070;50.794;7.054;2023-01-15T11:16:51;99554.28;;;7.01;69.70
72925;BME280;61070;50.794;7.054;2023-01-15T11:19:39;99560.34;;;7.08;69.35
72925;BME280;61070;50.794;7.054;2023-01-15T11:22:11;99554.25;;;7.05;69.40
72925;BME280;61070;50.794;7.054;2023-01-15T11:24:57;99547.25;;;7.04;68.72
72925;BME280;61070;50.794;7.054;2023-01-15T11:27:34;99543.66;;;7.09;68.41
72925;BME280;61070;50.794;7.054;2023-01-15T11:30:02;99551.59;;;7.06;68.93
72925;BME280;61070;50.794;7.054;2023-01-15T11:32:33;99547.97;;;7.12;68.26
72925;BME280;61070;50.794;7.054;2023-01-15T11:34:59;99552.47;;;7.07;68.54
72925;BME280;61070;50.794;7.054;2023-01-15T11:37:26;99555.94;;;7.09;68.66
72925;BME280;61070;50.794;7.054;2023-01-15T11:39:56;99556.78;;;7.11;67.69
72925;BME280;61070;50.794;7.054;2023-01-15T11:42:24;99549.59;;;7.20;68.06
72925;BME280;61070;50.794;7.054;2023-01-15T11:45:26;99534.75;;;7.16;68.04
72925;BME280;61070;50.794;7.054;2023-01-15T11:48:18;99544.25;;;7.26;68.45
72925;BME280;61070;50.794;7.054;2023-01-15T11:53:37;99539.66;;;7.38;69.06
72925;BME280;61070;50.794;7.054;2023-01-15T11:56:09;99522.59;;;7.57;67.80
72925;BME280;61070;50.794;7.054;2023-01-15T11:58:57;99544.38;;;7.67;67.61
72925;BME280;61070;50.794;7.054;2023-01-15T12:01:28;99542.19;;;7.88;68.04
72925;BME280;61070;50.794;7.054;2023-01-15T12:03:59;99544.78;;;7.92;67.29
72925;BME280;61070;50.794;7.054;2023-01-15T12:06:26;99544.44;;;7.64;67.05
72925;BME280;61070;50.794;7.054;2023-01-15T12:14:48;99516.00;;;7.79;67.77
72925;BME280;61070;50.794;7.054;2023-01-15T12:20:26;99512.00;;;7.62;68.19
72925;BME280;61070;50.794;7.054;2023-01-15T12:28:05;99494.88;;;7.38;68.23
72925;BME280;61070;50.794;7.054;2023-01-15T12:30:42;99486.31;;;7.26;67.90
72925;BME280;61070;50.794;7.054;2023-01-15T12:33:22;99487.88;;;7.35;67.78
72925;BME280;61070;50.794;7.054;2023-01-15T12:36:02;99496.47;;;7.45;68.56
72925;BME280;61070;50.794;7.054;2023-01-15T12:39:29;99509.63;;;7.46;68.85
72925;BME280;61070;50.794;7.054;2023-01-15T12:41:37;99502.25;;;7.65;67.87
72925;BME280;61070;50.794;7.054;2023-01-15T12:45:02;99503.84;;;7.74;66.82
72925;BME280;61070;50.794;7.054;2023-01-15T12:50:38;99512.38;;;7.86;66.77
72925;BME280;61070;50.794;7.054;2023-01-15T12:53:20;99511.69;;;7.77;66.51
72925;BME280;61070;50.794;7.054;2023-01-15T12:55:57;99501.03;;;7.83;66.27
72925;BME280;61070;50.794;7.054;2023-01-15T13:01:03;99484.31;;;7.84;65.83
72925;BME280;61070;50.794;7.054;2023-01-15T13:03:47;99498.56;;;7.74;66.67
72925;BME280;61070;50.794;7.054;2023-01-15T13:06:15;99505.44;;;7.82;65.78
72925;BME280;61070;50.794;7.054;2023-01-15T13:11:12;99504.56;;;7.80;65.97
72925;BME280;61070;50.794;7.054;2023-01-15T13:13:40;99501.00;;;7.84;64.82
72925;BME280;61070;50.794;7.054;2023-01-15T13:16:11;99508.06;;;7.82;65.79
72925;BME280;61070;50.794;7.054;2023-01-15T13:21:31;99516.81;;;7.84;64.77
72925;BME280;61070;50.794;7.054;2023-01-15T13:32:29;99523.75;;;7.88;65.81
72925;BME280;61070;50.794;7.054;2023-01-15T13:35:26;99525.41;;;7.93;65.02
72925;BME280;61070;50.794;7.054;2023-01-15T13:37:55;99533.25;;;7.97;63.94
72925;BME280;61070;50.794;7.054;2023-01-15T13:40:29;99520.22;;;7.89;64.87
72925;BME280;61070;50.794;7.054;2023-01-15T13:42:57;99521.03;;;7.93;64.09
72925;BME280;61070;50.794;7.054;2023-01-15T13:47:53;99528.28;;;7.82;65.78
72925;BME280;61070;50.794;7.054;2023-01-15T13:50:32;99535.72;;;7.62;66.10
72925;BME280;61070;50.794;7.054;2023-01-15T13:53:16;99530.25;;;7.69;66.21
72925;BME280;61070;50.794;7.054;2023-01-15T13:55:52;99526.03;;;7.62;65.54
72925;BME280;61070;50.794;7.054;2023-01-15T13:58:27;99525.00;;;7.69;65.18
72925;BME280;61070;50.794;7.054;2023-01-15T14:09:07;99546.75;;;7.80;64.15
72925;BME280;61070;50.794;7.054;2023-01-15T14:11:41;99547.88;;;7.67;64.18
72925;BME280;61070;50.794;7.054;2023-01-15T14:14:19;99548.66;;;7.74;64.46
72925;BME280;61070;50.794;7.054;2023-01-15T14:25:22;99561.28;;;7.55;65.07
72925;BME280;61070;50.794;7.054;2023-01-15T14:28:11;99566.63;;;7.52;64.73
72925;BME280;61070;50.794;7.054;2023-01-15T14:36:18;99571.81;;;7.55;65.21
72925;BME280;61070;50.794;7.054;2023-01-15T14:38:47;99573.63;;;7.53;64.66
72925;BME280;61070;50.794;7.054;2023-01-15T14:41:14;99580.59;;;7.55;65.29
72925;BME280;61070;50.794;7.054;2023-01-15T14:43:47;99585.81;;;7.58;64.93
72925;BME280;61070;50.794;7.054;2023-01-15T14:46:22;99593.03;;;7.49;65.64
72925;BME280;61070;50.794;7.054;2023-01-15T14:48:48;99588.66;;;7.48;65.14
72925;BME280;61070;50.794;7.054;2023-01-15T14:51:33;99595.66;;;7.47;65.28
72925;BME280;61070;50.794;7.054;2023-01-15T14:54:13;99609.75;;;7.46;65.46
72925;BME280;61070;50.794;7.054;2023-01-15T14:56:43;99594.84;;;7.44;65.53
72925;BME280;61070;50.794;7.054;2023-01-15T14:59:21;99608.91;;;7.44;65.56
72925;BME280;61070;50.794;7.054;2023-01-15T15:01:57;99597.50;;;7.44;65.68
72925;BME280;61070;50.794;7.054;2023-01-15T15:04:43;99598.50;;;7.35;65.71
72925;BME280;61070;50.794;7.054;2023-01-15T15:07:12;99600.31;;;7.33;65.98